^^
Station Historical Data
Daily Summary for August 14, 2017 Units:  Metric    English   Both
« Previous Day
Next Day »
Daily Weekly Monthly Yearly Custom
  High: Low: Average:
Temperature: 28.8 °C 8.2 °C 17.8 °C
Dew Point: -1.7 °C -7.1 °C -4.1 °C
Humidity: 45% 11% 26%
Wind Speed: 17.7km/h 0km/h 3.1km/h
Wind Gust: 29km/h - -
Wind- - NNW
Pressure: 1023.6 hPa 1016.5 hPa -
Precipitation: 0 mm    
Historical Graphs
 
 
Tabular Data for August 14, 2017
Time Temperature Dew Point Pressure Wind Wind Speed Wind Gust Humidity Rainfall Rate (Hourly) solar Conditions
04:23 9.7 °C -2.9 °C 1021.2 hPa Calm   3.2 km/h 41% 0 mm 0.0 W/m2
04:29 9.4 °C -3.5 °C 1021.2 hPa Calm     40% 0 mm 0.0 W/m2
04:34 9 °C -3.6 °C 1021.2 hPa Calm     41% 0 mm 0.0 W/m2
04:39 8.9 °C -3.3 °C 1021.2 hPa SW 3.2 km/h 8 km/h 42% 0 mm 0.0 W/m2
04:45 8.7 °C -3.2 °C 1021.2 hPa Calm   4.8 km/h 43% 0 mm 0.0 W/m2
04:50 8.6 °C -3.3 °C 1021.2 hPa Calm     43% 0 mm 0.0 W/m2
04:55 8.3 °C -3.6 °C 1021.2 hPa Calm     43% 0 mm 0.0 W/m2
05:00 8.2 °C -3.3 °C 1021.2 hPa Calm     44% 0 mm 0.0 W/m2
05:05 8.2 °C -3 °C 1021.2 hPa Calm     45% 0 mm 0.0 W/m2
05:11 8.5 °C -3.4 °C 1021.2 hPa Calm     43% 0 mm 0.0 W/m2
05:21 8.5 °C -3.1 °C 1021.6 hPa Calm     44% 0 mm 0.0 W/m2
05:26 8.5 °C -3.4 °C 1021.6 hPa Calm     43% 0 mm 0.0 W/m2
05:31 8.4 °C -3.5 °C 1021.6 hPa Calm     43% 0 mm 0.0 W/m2
05:41 8.2 °C -3.3 °C 1021.9 hPa Calm     44% 0 mm 0.0 W/m2
05:47 8.2 °C -3.3 °C 1021.9 hPa Calm     44% 0 mm 0.0 W/m2
05:52 8.2 °C -3.3 °C 1021.9 hPa Calm     44% 0 mm 0.0 W/m2
06:02 8.2 °C -3 °C 1021.9 hPa Calm     45% 0 mm 0.0 W/m2
06:08 8.3 °C -3.2 °C 1022.2 hPa Calm     44% 0 mm 0.0 W/m2
06:13 8.3 °C -3.2 °C 1022.2 hPa Calm     44% 0 mm 0.0 W/m2
06:23 8.3 °C -3.2 °C 1022.2 hPa Calm     44% 0 mm 0.0 W/m2
06:29 8.3 °C -3.2 °C 1022.2 hPa Calm     44% 0 mm 9.0 W/m2
06:34 8.3 °C -3.2 °C 1022.2 hPa Calm     44% 0 mm 11.0 W/m2
06:39 8.2 °C -3.3 °C 1022.2 hPa Calm     44% 0 mm 12.0 W/m2
06:44 8.3 °C -3.2 °C 1022.2 hPa Calm     44% 0 mm 16.0 W/m2
06:50 8.4 °C -3.2 °C 1022.2 hPa Calm     44% 0 mm 18.0 W/m2
06:56 8.6 °C -3.3 °C 1022.6 hPa Calm     43% 0 mm 21.0 W/m2
07:00 8.7 °C -3.2 °C 1022.2 hPa Calm     43% 0 mm 70.0 W/m2
07:14 9.3 °C -3 °C 1022.6 hPa Calm     42% 0 mm 104.0 W/m2
07:26 10.1 °C -2.6 °C 1022.6 hPa Calm     41% 0 mm 142.0 W/m2
07:41 11.2 °C -2.6 °C 1022.9 hPa Calm     38% 0 mm 202.0 W/m2
07:51 12.1 °C -2.2 °C 1022.9 hPa Calm     37% 0 mm 237.0 W/m2
08:02 13.2 °C -2.3 °C 1023.2 hPa Calm     34% 0 mm 271.0 W/m2
08:12 15.5 °C -2.5 °C 1023.2 hPa SW 7.9 km/h 12.9 km/h 29% 0 mm 315.0 W/m2
08:27 16.8 °C -2.3 °C 1023.2 hPa Calm   14.5 km/h 27% 0 mm 362.0 W/m2
08:42 17.4 °C -1.8 °C 1023.2 hPa Calm   11.3 km/h 27% 0 mm 406.0 W/m2
09:04 18.1 °C -2.2 °C 1023.6 hPa West 6.4 km/h 16.1 km/h 25% 0 mm 448.0 W/m2
09:12 18.1 °C -1.7 °C 1023.2 hPa West 3.2 km/h 11.3 km/h 26% 0 mm 487.0 W/m2
09:27 18.5 °C -1.9 °C 1023.2 hPa WNW 1.4 km/h 20.9 km/h 25% 0 mm 517.0 W/m2
09:42 19.3 °C -2.4 °C 1023.2 hPa WNW 11.1 km/h 20.9 km/h 23% 0 mm 550.0 W/m2
09:57 20.2 °C -4.2 °C 1022.9 hPa NW 9.7 km/h 25.7 km/h 19% 0 mm 582.0 W/m2
10:18 21.6 °C -4.5 °C 1022.6 hPa NNW 14.3 km/h 29 km/h 17% 0 mm 615.0 W/m2
10:38 22.2 °C -4.8 °C 1022.2 hPa NNW 14.3 km/h 22.5 km/h 16% 0 mm 643.0 W/m2
10:58 23.1 °C -5 °C 1021.9 hPa NNW 13 km/h 22.5 km/h 15% 0 mm 664.0 W/m2
11:13 23.7 °C -4.5 °C 1021.6 hPa NNW 13 km/h 19.3 km/h 15% 0 mm 679.0 W/m2
11:28 24.4 °C -3.9 °C 1021.2 hPa North 11.1 km/h 17.7 km/h 15% 0 mm 686.0 W/m2
11:34 24.4 °C -3.9 °C 1021.2 hPa North 11.1 km/h 17.7 km/h 15% 0 mm 686.0 W/m2
11:43 24.9 °C -3.5 °C 1020.9 hPa North 6.4 km/h 20.9 km/h 15% 0 mm 691.0 W/m2
11:59 25.4 °C -4 °C 1020.5 hPa North 14.3 km/h 22.5 km/h 14% 0 mm 691.0 W/m2
12:14 25.9 °C -3.6 °C 1020.2 hPa North 13 km/h 24.1 km/h 14% 0 mm 689.0 W/m2
12:34 25.9 °C -3.6 °C 1019.5 hPa NNW 14.3 km/h 19.3 km/h 14% 0 mm 677.0 W/m2
13:01 26.6 °C -4.1 °C 1019.2 hPa NNW 7.9 km/h 17.7 km/h 13% 0 mm 657.0 W/m2
13:30 27 °C -3.8 °C 1018.8 hPa Calm   25.7 km/h 13% 0 mm 617.0 W/m2
13:39 27.4 °C -4.5 °C 1018.5 hPa NNW 3.2 km/h 20.9 km/h 12% 0 mm 591.0 W/m2
13:59 27.5 °C -4.4 °C 1018.5 hPa NNW 13 km/h 19.3 km/h 12% 0 mm 563.0 W/m2
14:10 27.7 °C -4.3 °C 1018.2 hPa NNW 3.2 km/h 22.5 km/h 12% 0 mm 545.0 W/m2
14:20 28.1 °C -5.1 °C 1017.8 hPa Calm   14.5 km/h 11% 0 mm 508.0 W/m2
14:35 28.3 °C -3.8 °C 1017.8 hPa NNW 9.7 km/h 12.9 km/h 12% 0 mm 473.0 W/m2
14:50 28.4 °C -4.9 °C 1017.5 hPa NNW 17.7 km/h 19.3 km/h 11% 0 mm 434.0 W/m2
15:05 28.7 °C -4.7 °C 1017.2 hPa NNW 11.1 km/h 22.5 km/h 11% 0 mm 392.0 W/m2
15:20 28.7 °C -4.7 °C 1017.2 hPa NNW 3.2 km/h 17.7 km/h 11% 0 mm 350.0 W/m2
15:26 28.7 °C -4.7 °C 1017.2 hPa NNW 3.2 km/h 17.7 km/h 11% 0 mm 350.0 W/m2
15:35 28.8 °C -4.6 °C 1017.2 hPa NNW 7.9 km/h 14.5 km/h 11% 0 mm 306.0 W/m2
15:50 28.8 °C -4.6 °C 1016.8 hPa NNW 7.9 km/h 14.5 km/h 11% 0 mm 246.0 W/m2
16:12 28.4 °C -4.9 °C 1016.8 hPa NNW 7.9 km/h 9.7 km/h 11% 0 mm 146.0 W/m2
16:27 28.2 °C -5.1 °C 1016.8 hPa Calm   3.2 km/h 11% 0 mm 153.0 W/m2
16:36 28.1 °C -5.1 °C 1016.8 hPa Calm     11% 0 mm 69.0 W/m2
16:42 28.1 °C -5.1 °C 1016.8 hPa Calm     11% 0 mm 69.0 W/m2
16:51 28 °C -5.2 °C 1016.8 hPa NNW 1.4 km/h 1.6 km/h 11% 0 mm 81.0 W/m2
17:12 27.8 °C -5.4 °C 1016.5 hPa Calm     11% 0 mm 28.0 W/m2
17:26 27.1 °C -4.8 °C 1016.5 hPa Calm     12% 0 mm 11.0 W/m2
17:36 26.1 °C -5.5 °C 1016.8 hPa Calm     12% 0 mm 0.0 W/m2
17:46 24.6 °C -5.7 °C 1016.8 hPa Calm     13% 0 mm 0.0 W/m2
17:53 23.4 °C -5.6 °C 1016.8 hPa Calm     14% 0 mm 0.0 W/m2
18:03 22.6 °C -6.3 °C 1016.8 hPa Calm     14% 0 mm 0.0 W/m2
18:19 21.5 °C -4.6 °C 1017.2 hPa Calm     17% 0 mm 0.0 W/m2
18:34 20.6 °C -6.1 °C 1017.2 hPa Calm     16% 0 mm 0.0 W/m2
18:50 19.8 °C -5.2 °C 1017.2 hPa Calm     18% 0 mm 0.0 W/m2
19:12 20.5 °C -5.4 °C 1017.2 hPa Calm     17% 0 mm 0.0 W/m2
19:23 20.9 °C -5.1 °C 1017.2 hPa Calm     17% 0 mm 0.0 W/m2
20:24 16.9 °C -5.6 °C 1017.5 hPa Calm     21% 0 mm 0.0 W/m2
20:51 16.4 °C -6.6 °C 1017.8 hPa Calm     20% 0 mm 0.0 W/m2
21:05 16 °C -6.3 °C 1017.8 hPa Calm     21% 0 mm 0.0 W/m2
21:10 15.4 °C -6.2 °C 1017.8 hPa Calm     22% 0 mm 0.0 W/m2
21:31 15.1 °C -7.1 °C 1017.8 hPa Calm     21% 0 mm 0.0 W/m2
21:37 14.9 °C -6.1 °C 1017.8 hPa Calm     23% 0 mm 0.0 W/m2
21:47 14.3 °C -6.6 °C 1017.8 hPa Calm     23% 0 mm 0.0 W/m2
22:01 14.3 °C -6.6 °C 1017.8 hPa Calm     23% 0 mm 0.0 W/m2
22:09 14.2 °C -6.7 °C 1017.8 hPa Calm     23% 0 mm 0.0 W/m2
Canyon Roadhouse, Fishriver Canyon, Namibia
Compliments of Weather Underground - 2 mb